Haslet, TX (76052)

12:17 AM CDT on August 30, 2015 (GMT -0500)
Villages of Woodland Springs West | | Change Station
CLOSE
Current Station
Personal Weather Station
Location: Keller, TX
Elevation: 797 ft
Nearby Weather Stations

Elev 797 ft 32.95 °N, 97.31 °W | Updated 8 seconds ago

Mostly Cloudy
Mostly Cloudy
78.8 °F
Feels Like 80 °F
N
0.0
Wind Variable Wind from West
Gusts 0.0 mph

Today
High -- | Low -- °F
--% Chance of Precip.
Yesterday
High -- | Low -- °F
Precip. -- in
7:02 AM 7:57 PM
Full, 100% visible
Pressure 29.93 in
Visibility 10.0 miles
Clouds Few 8500 ft
Scattered Clouds 14000 ft
Mostly Cloudy 30000 ft
Heat Index 80 °F
Dew Point 61 °F
Humidity 54%
Rainfall 0.00 in
Snow Depth Not available.
UV 0 out of 12
Pollen 8.50 out of 12
Air Quality Not available.
Flu Activity Not available.
METAR KAFW 300453Z 24004KT 10SM FEW085 SCT140 BKN300 24/18 A2998 RMK AO2 SLP134 T02390178
Pressure 29.93 in
Visibility 10.0 miles
Clouds Few 8500 ft
Scattered Clouds 14000 ft
Mostly Cloudy 30000 ft
Heat Index 80 °F
Dew Point 61 °F
Humidity 54%
Rainfall 0.00 in
Snow Depth Not available.
UV 0 out of 12
Pollen 8.50 out of 12
Air Quality Not available.
Flu Activity Not available.
METAR KAFW 300453Z 24004KT 10SM FEW085 SCT140 BKN300 24/18 A2998 RMK AO2 SLP134 T02390178
Nowcast | as of 11:51 PM CDT on August 29, 2015

Isolated thunderstorms are moving slowly southeast across Hopkins and counties. Brief heavy rain and occasional cloud to ground lightning will affect areas near Sulphur Springs and Emory through 1 am.

×

10-Day Weather Forecast

×

Almanac

Astronomy

Aug. 30, 2015 Rise Set
Actual Time
Civil Twilight
Nautical Twilight
Astronomical Twilight
Moon
Length of Visible Light
Length of Day
Tomorrow will be .
, % of the Moon is Illuminated

Today's Extremes

State Highs State Lows

Community

WunderPhotos

Upload Photos

1,850,895 photos uploaded!

WunderBlogs® & News

Nearby

Air Quality

  Air Quality AQ Index Pollutant
Not available.

Snow Depth

Station Depth Elevation

Earthquake Activity

City Distance Mag. Time & Date
Minimum magnitude displayed is 2.5.

Coastal Water Temperatures

Place Temperature

Stations

Nearby Weather Stations

Station Location Temp. Windchill Dew Point Humidity Wind Precip. Elev Updated Type